createdAt,value
2022-11-25T00:01:41.591Z,10.03
2022-11-25T00:04:09.581Z,2.70
2022-11-25T00:06:37.639Z,1.40
2022-11-25T00:09:07.727Z,2.13
2022-11-25T00:11:36.113Z,1.10
2022-11-25T00:14:04.079Z,1.53
2022-11-25T00:16:32.113Z,2.73
2022-11-25T00:19:00.139Z,2.27
2022-11-25T00:21:29.179Z,2.43
2022-11-25T00:23:57.958Z,0.97
2022-11-25T00:26:27.805Z,0.80
2022-11-25T00:28:57.679Z,1.10
2022-11-25T00:31:26.634Z,2.60
2022-11-25T00:33:54.652Z,1.73
2022-11-25T00:36:23.997Z,4.20
2022-11-25T00:38:54.290Z,2.70
2022-11-25T00:41:39.447Z,2.10
2022-11-25T00:44:27.285Z,1.00
2022-11-25T00:46:55.250Z,2.83
2022-11-25T00:49:23.323Z,4.03
2022-11-25T00:51:51.378Z,1.10
2022-11-25T00:54:19.519Z,0.80
2022-11-25T00:56:47.572Z,2.73
2022-11-25T00:59:16.960Z,1.97
2022-11-25T01:01:45.027Z,1.80
2022-11-25T01:04:13.092Z,2.20
2022-11-25T01:06:41.012Z,1.17
2022-11-25T01:09:09.085Z,1.03
2022-11-25T01:11:37.063Z,1.37
2022-11-25T01:14:05.006Z,1.40
2022-11-25T01:16:34.361Z,0.77
2022-11-25T01:19:02.473Z,3.60
2022-11-25T01:21:31.458Z,2.63
2022-11-25T01:24:00.340Z,1.23
2022-11-25T01:26:28.536Z,1.03
2022-11-25T01:28:57.292Z,1.13
2022-11-25T01:31:26.361Z,1.30
2022-11-25T01:33:56.883Z,1.53
2022-11-25T01:36:24.899Z,3.10
2022-11-25T01:38:53.582Z,1.60
2022-11-25T01:41:22.252Z,1.83
2022-11-25T01:44:11.074Z,3.80
2022-11-25T01:46:56.288Z,1.00
2022-11-25T01:49:30.043Z,1.80
2022-11-25T01:52:00.427Z,1.13
2022-11-25T01:54:29.525Z,1.23
2022-11-25T01:56:59.750Z,1.20
2022-11-25T01:59:27.807Z,0.80
2022-11-25T02:01:55.852Z,1.07
2022-11-25T02:04:24.183Z,3.60
2022-11-25T02:06:54.993Z,1.20
2022-11-25T02:09:23.185Z,1.47
2022-11-25T02:11:51.178Z,2.70
2022-11-25T02:14:19.345Z,2.07
2022-11-25T02:16:47.364Z,2.70
2022-11-25T02:19:18.111Z,6.53
2022-11-25T02:21:48.580Z,4.73
2022-11-25T02:24:19.821Z,1.77
2022-11-25T02:26:49.215Z,2.90
2022-11-25T02:29:17.181Z,1.57
2022-11-25T02:31:45.261Z,3.60
2022-11-25T02:34:13.254Z,2.87
2022-11-25T02:36:41.198Z,2.77
2022-11-25T02:39:09.163Z,4.53
2022-11-25T02:41:38.663Z,2.37
2022-11-25T02:44:07.971Z,1.70
2022-11-25T02:46:35.954Z,3.30
2022-11-25T02:49:11.393Z,2.67
2022-11-25T02:51:39.984Z,5.33
2022-11-25T02:54:07.996Z,2.10
2022-11-25T02:56:36.325Z,2.57
2022-11-25T02:59:04.488Z,2.90
2022-11-25T03:01:35.364Z,2.10
2022-11-25T03:04:03.568Z,5.17
2022-11-25T03:06:31.550Z,1.63
2022-11-25T03:08:59.543Z,5.37
2022-11-25T03:11:47.639Z,1.80
2022-11-25T03:14:15.550Z,1.70
2022-11-25T03:16:44.993Z,1.40
2022-11-25T03:19:13.001Z,4.97
2022-11-25T03:21:40.917Z,2.37
2022-11-25T03:24:08.980Z,5.10
2022-11-25T03:26:36.957Z,3.17
2022-11-25T03:29:04.934Z,1.67
2022-11-25T03:31:32.915Z,2.97
2022-11-25T03:34:02.257Z,4.50
2022-11-25T03:36:30.209Z,2.27
2022-11-25T03:38:58.194Z,1.77
2022-11-25T03:41:26.162Z,5.00
2022-11-25T03:43:54.155Z,2.67
2022-11-25T03:46:22.166Z,6.63
2022-11-25T03:48:50.231Z,1.60
2022-11-25T03:51:19.562Z,1.43
2022-11-25T03:53:47.529Z,2.17
2022-11-25T03:56:15.613Z,12.90
2022-11-25T03:58:43.562Z,4.50
2022-11-25T04:01:11.760Z,2.80
2022-11-25T04:03:39.780Z,1.73
2022-11-25T04:06:07.838Z,2.50
2022-11-25T04:08:37.208Z,3.10
2022-11-25T04:11:05.139Z,2.90
2022-11-25T04:13:32.114Z,3.80
2022-11-25T04:16:00.095Z,5.00
2022-11-25T04:18:28.042Z,4.00
2022-11-25T04:20:56.016Z,1.47
2022-11-25T04:23:23.966Z,3.37
2022-11-25T04:25:53.343Z,6.67
2022-11-25T04:28:21.332Z,6.97
2022-11-25T04:30:49.288Z,5.17
2022-11-25T04:33:17.372Z,1.90
2022-11-25T04:35:45.476Z,1.90
2022-11-25T04:38:13.488Z,6.10
2022-11-25T04:40:41.547Z,1.47
2022-11-25T04:43:10.976Z,5.23
2022-11-25T04:46:06.191Z,1.50
2022-11-25T04:48:26.880Z,2.53
2022-11-25T04:50:54.844Z,4.90
2022-11-25T04:53:22.787Z,2.63
2022-11-25T04:55:50.754Z,2.67
2022-11-25T04:58:40.078Z,2.03
2022-11-25T05:01:07.038Z,4.73
2022-11-25T05:03:34.993Z,1.80
2022-11-25T05:06:07.219Z,2.57
2022-11-25T05:08:35.214Z,2.87
2022-11-25T05:11:03.243Z,8.13
2022-11-25T05:13:32.676Z,3.23
2022-11-25T05:16:01.146Z,6.30
2022-11-25T05:18:29.182Z,14.77
2022-11-25T05:20:57.185Z,7.43
2022-11-25T05:23:25.238Z,2.60
2022-11-25T05:25:53.186Z,11.77
2022-11-25T05:28:21.309Z,2.60
2022-11-25T05:30:50.725Z,2.10
2022-11-25T05:33:18.722Z,5.60
2022-11-25T05:35:46.700Z,2.20
2022-11-25T05:38:14.686Z,2.30
2022-11-25T05:40:42.574Z,1.93
2022-11-25T05:43:10.544Z,3.63
2022-11-25T05:45:39.740Z,4.20
2022-11-25T05:48:09.258Z,3.87
2022-11-25T05:50:37.962Z,2.67
2022-11-25T05:53:05.952Z,3.17
2022-11-25T05:55:33.969Z,2.53
2022-11-25T05:58:03.168Z,3.30
2022-11-25T06:00:31.166Z,3.97
2022-11-25T06:02:59.306Z,6.23
2022-11-25T06:05:28.694Z,11.97
2022-11-25T06:07:56.701Z,3.00
2022-11-25T06:10:24.651Z,6.03
2022-11-25T06:12:53.748Z,3.10
2022-11-25T06:15:21.906Z,3.10
2022-11-25T06:17:49.852Z,3.63
2022-11-25T06:20:18.068Z,5.23
2022-11-25T06:22:47.531Z,2.87
2022-11-25T06:25:15.544Z,3.77
2022-11-25T06:28:11.259Z,8.73
2022-11-25T06:30:31.415Z,5.37
2022-11-25T06:32:59.376Z,2.97
2022-11-25T06:35:27.343Z,4.07
2022-11-25T06:37:56.692Z,1.83
2022-11-25T06:40:24.714Z,6.07
2022-11-25T06:42:52.800Z,4.70
2022-11-25T06:45:20.795Z,8.07
2022-11-25T06:47:48.808Z,7.43
2022-11-25T06:50:16.968Z,3.60
2022-11-25T06:52:44.933Z,3.43
2022-11-25T06:55:14.367Z,4.40
2022-11-25T06:57:42.324Z,3.00
2022-11-25T07:00:10.861Z,3.03
2022-11-25T07:02:44.066Z,1.43
2022-11-25T07:05:13.413Z,2.90
2022-11-25T07:07:41.382Z,2.73
2022-11-25T07:10:10.332Z,3.63
2022-11-25T07:12:39.924Z,4.97
2022-11-25T07:15:08.493Z,8.90
2022-11-25T07:17:36.565Z,3.10
2022-11-25T07:20:04.905Z,2.03
2022-11-25T07:22:32.839Z,7.70
2022-11-25T07:25:00.867Z,6.27
2022-11-25T07:27:28.841Z,6.83
2022-11-25T07:30:41.069Z,10.30
2022-11-25T07:32:46.135Z,6.77
2022-11-25T07:35:14.202Z,4.17
2022-11-25T07:37:42.296Z,7.50
2022-11-25T07:40:11.006Z,6.70
2022-11-25T07:42:38.951Z,2.97
2022-11-25T07:45:09.358Z,5.10
2022-11-25T07:47:37.339Z,3.80
2022-11-25T07:50:05.817Z,3.10
2022-11-25T07:52:33.868Z,4.43
2022-11-25T07:55:01.818Z,7.60
2022-11-25T07:57:30.240Z,4.80
2022-11-25T07:59:58.173Z,4.37
2022-11-25T08:02:27.572Z,5.47
2022-11-25T08:04:55.626Z,5.70
2022-11-25T08:07:23.671Z,6.40
2022-11-25T08:09:52.588Z,5.20
2022-11-25T08:12:20.580Z,5.87
2022-11-25T08:14:48.648Z,4.90
2022-11-25T08:17:16.570Z,5.17
2022-11-25T08:19:45.915Z,4.40
2022-11-25T08:22:14.005Z,6.43
2022-11-25T08:24:42.176Z,4.67
2022-11-25T08:27:10.117Z,3.37
2022-11-25T08:29:38.167Z,4.70
2022-11-25T08:32:11.771Z,5.90
2022-11-25T08:34:40.161Z,7.00
2022-11-25T08:37:09.675Z,8.50
2022-11-25T08:39:52.444Z,6.20
2022-11-25T08:42:21.031Z,6.97
2022-11-25T08:44:53.102Z,4.80
2022-11-25T08:47:21.075Z,4.33
2022-11-25T08:49:51.843Z,10.33
2022-11-25T08:52:21.220Z,5.83
2022-11-25T08:54:49.186Z,5.13
2022-11-25T08:57:17.247Z,5.40
2022-11-25T08:59:45.178Z,3.40
2022-11-25T09:02:14.412Z,4.57
2022-11-25T09:04:42.468Z,5.53
2022-11-25T09:07:10.546Z,8.00
2022-11-25T09:09:40.176Z,7.70
2022-11-25T09:12:08.359Z,6.20
2022-11-25T09:14:36.392Z,5.53
2022-11-25T09:17:05.132Z,8.10
2022-11-25T09:19:33.334Z,4.83
2022-11-25T09:22:01.380Z,5.67
2022-11-25T09:24:29.367Z,9.33
2022-11-25T09:26:58.671Z,8.37
2022-11-25T09:29:27.844Z,6.83
2022-11-25T09:31:55.838Z,5.80
2022-11-25T09:34:23.848Z,5.30
2022-11-25T09:36:51.828Z,4.83
2022-11-25T09:39:19.814Z,3.70
2022-11-25T09:42:16.199Z,3.70
2022-11-25T09:45:07.196Z,7.17
2022-11-25T09:47:42.316Z,16.03
2022-11-25T09:50:17.616Z,10.60
2022-11-25T09:52:49.697Z,6.80
2022-11-25T09:55:18.833Z,9.90
2022-11-25T09:57:59.688Z,9.00
2022-11-25T10:00:39.178Z,5.20
2022-11-25T10:03:08.588Z,4.47
2022-11-25T10:05:40.595Z,5.07
2022-11-25T10:08:11.290Z,3.87
2022-11-25T10:10:42.690Z,6.87
2022-11-25T10:13:15.491Z,6.07
2022-11-25T10:15:45.449Z,5.30
2022-11-25T10:18:16.626Z,9.60
2022-11-25T10:20:44.725Z,5.10
2022-11-25T10:23:13.942Z,7.90
2022-11-25T10:25:46.240Z,7.30
2022-11-25T10:28:18.989Z,3.73
2022-11-25T10:30:51.017Z,5.43
2022-11-25T10:33:20.951Z,3.40
2022-11-25T10:35:50.832Z,4.47
2022-11-25T10:38:21.791Z,4.73
2022-11-25T10:40:51.073Z,7.50
2022-11-25T10:43:20.863Z,7.20
2022-11-25T10:45:50.623Z,31.67
2022-11-25T10:48:24.005Z,5.50
2022-11-25T10:51:03.151Z,6.63
2022-11-25T10:53:31.486Z,6.33
2022-11-25T10:56:02.263Z,8.80
2022-11-25T10:58:33.138Z,6.20
2022-11-25T11:01:06.572Z,6.63
2022-11-25T11:03:34.666Z,15.07
2022-11-25T11:06:02.643Z,11.80
2022-11-25T11:08:37.676Z,4.70
2022-11-25T11:11:26.431Z,8.00
2022-11-25T11:14:01.778Z,5.93
2022-11-25T11:16:31.809Z,3.97
2022-11-25T11:19:00.019Z,6.07
2022-11-25T11:21:31.476Z,6.63
2022-11-25T11:23:59.957Z,6.53
2022-11-25T11:26:28.902Z,6.07
2022-11-25T11:29:11.127Z,7.57
2022-11-25T11:31:45.296Z,8.83
2022-11-25T11:34:28.826Z,3.73
2022-11-25T11:37:07.990Z,7.60
2022-11-25T11:39:52.856Z,9.50
2022-11-25T11:42:23.882Z,7.00
2022-11-25T11:45:01.147Z,7.37
2022-11-25T11:47:31.932Z,7.33
2022-11-25T11:50:18.534Z,7.60
2022-11-25T11:52:51.487Z,7.37
2022-11-25T11:55:29.217Z,19.73
2022-11-25T11:58:01.322Z,23.30
2022-11-25T12:00:33.281Z,17.37
2022-11-25T12:03:02.550Z,6.23
2022-11-25T12:05:31.454Z,16.20
2022-11-25T12:08:04.153Z,7.27
2022-11-25T12:10:33.940Z,9.83
2022-11-25T12:13:09.028Z,8.40
2022-11-25T12:15:45.038Z,8.07
2022-11-25T12:18:20.018Z,5.00
2022-11-25T12:20:50.590Z,7.40
2022-11-25T12:23:21.066Z,6.77
2022-11-25T12:25:49.284Z,4.67
2022-11-25T12:28:18.899Z,9.07
2022-11-25T12:30:58.305Z,16.00
2022-11-25T12:33:31.123Z,8.07
2022-11-25T12:36:01.144Z,14.83
2022-11-25T12:38:35.201Z,8.80
2022-11-25T12:41:06.064Z,7.30
2022-11-25T12:43:38.009Z,5.40
2022-11-25T12:46:14.857Z,5.80
2022-11-25T12:48:43.727Z,9.00
2022-11-25T12:51:18.063Z,6.33
2022-11-25T12:53:48.390Z,7.37
2022-11-25T12:56:18.364Z,5.33
2022-11-25T12:58:54.304Z,8.20
2022-11-25T13:01:45.535Z,8.83
2022-11-25T13:04:58.048Z,17.73
2022-11-25T13:07:32.300Z,8.93
2022-11-25T13:10:14.379Z,7.43
2022-11-25T13:12:47.505Z,8.60
2022-11-25T13:15:28.250Z,10.73
2022-11-25T13:18:00.575Z,10.47
2022-11-25T13:20:37.066Z,13.53
2022-11-25T13:23:09.010Z,5.90
2022-11-25T13:25:37.734Z,6.27
2022-11-25T13:28:06.162Z,9.17
2022-11-25T13:30:38.555Z,12.83
2022-11-25T13:33:38.922Z,7.63
2022-11-25T13:36:16.555Z,7.70
2022-11-25T13:39:01.095Z,7.27
2022-11-25T13:41:49.949Z,6.53
2022-11-25T13:44:23.208Z,9.33
2022-11-25T13:46:52.675Z,8.93
2022-11-25T13:49:26.029Z,7.97
2022-11-25T13:51:55.914Z,9.97
2022-11-25T13:54:26.953Z,7.20
2022-11-25T13:57:28.032Z,4.80
2022-11-25T13:59:57.949Z,10.30
2022-11-25T14:02:42.071Z,5.07
2022-11-25T14:05:57.517Z,9.30
2022-11-25T14:08:33.642Z,5.40
2022-11-25T14:11:14.509Z,6.53
2022-11-25T14:13:59.826Z,13.30
2022-11-25T14:16:40.557Z,13.53
2022-11-25T14:19:54.839Z,5.83
2022-11-25T14:22:41.416Z,6.10
2022-11-25T14:25:22.354Z,9.37
2022-11-25T14:27:52.998Z,5.83
2022-11-25T14:30:21.075Z,8.70
2022-11-25T14:32:53.412Z,15.50
2022-11-25T14:35:22.974Z,9.20
2022-11-25T14:37:51.812Z,8.50
2022-11-25T14:40:22.844Z,10.43
2022-11-25T14:42:53.124Z,8.30
2022-11-25T14:45:22.406Z,8.47
2022-11-25T14:47:50.394Z,5.80
2022-11-25T14:50:34.203Z,8.97
2022-11-25T14:53:07.217Z,8.67
2022-11-25T14:55:36.590Z,9.63
2022-11-25T14:58:04.509Z,8.37
2022-11-25T15:00:32.489Z,8.90
2022-11-25T15:03:01.129Z,12.43
2022-11-25T15:05:33.053Z,16.23
2022-11-25T15:08:02.490Z,11.47
2022-11-25T15:10:41.029Z,9.23
2022-11-25T15:13:14.503Z,17.57
2022-11-25T15:15:45.763Z,20.00
2022-11-25T15:18:17.473Z,12.37
2022-11-25T15:20:47.929Z,14.40
2022-11-25T15:23:16.216Z,8.40
2022-11-25T15:25:52.178Z,18.53
2022-11-25T15:28:20.147Z,15.10
2022-11-25T15:30:57.382Z,12.30
2022-11-25T15:33:25.640Z,22.37
2022-11-25T15:35:54.017Z,8.67
2022-11-25T15:38:36.209Z,12.03
2022-11-25T15:41:05.685Z,18.00
2022-11-25T15:43:33.618Z,21.25
2022-11-25T15:46:02.584Z,17.47
2022-11-25T15:48:32.027Z,17.10
2022-11-25T15:51:02.490Z,28.87
2022-11-25T15:53:33.360Z,11.70
2022-11-25T15:56:01.613Z,15.83
2022-11-25T15:58:30.925Z,15.80
2022-11-25T16:01:05.802Z,14.97
2022-11-25T16:03:34.086Z,15.87
2022-11-25T16:06:02.354Z,21.17
2022-11-25T16:08:35.139Z,21.33
2022-11-25T16:11:15.402Z,18.23
2022-11-25T16:13:44.737Z,16.57
2022-11-25T16:16:17.738Z,22.33
2022-11-25T16:18:59.670Z,50.60
2022-11-25T16:21:30.590Z,40.80
2022-11-25T16:24:00.297Z,41.97
2022-11-25T16:26:29.521Z,39.50
2022-11-25T16:29:00.123Z,33.03
2022-11-25T16:31:28.725Z,232.27
2022-11-25T16:33:57.049Z,116.10
2022-11-25T16:36:25.060Z,74.50
2022-11-25T16:38:53.367Z,57.70
2022-11-25T16:41:22.113Z,39.40
2022-11-25T16:43:50.122Z,32.50
2022-11-25T16:46:20.359Z,30.23
2022-11-25T16:48:48.364Z,36.30
2022-11-25T16:51:17.073Z,55.23
2022-11-25T16:53:45.115Z,34.83
2022-11-25T16:56:15.580Z,48.67
2022-11-25T16:58:43.958Z,38.50
2022-11-25T17:01:14.078Z,39.93
2022-11-25T17:03:43.575Z,63.30
2022-11-25T17:06:20.036Z,43.00
2022-11-25T17:08:49.733Z,120.63
2022-11-25T17:11:19.456Z,144.23
2022-11-25T17:13:50.482Z,38.60
2022-11-25T17:16:19.494Z,29.90
2022-11-25T17:18:49.047Z,52.40
2022-11-25T17:21:17.276Z,44.17
2022-11-25T17:23:45.497Z,31.60
2022-11-25T17:26:17.748Z,23.83
2022-11-25T17:28:46.223Z,21.30
2022-11-25T17:31:14.226Z,20.20
2022-11-25T17:33:46.136Z,34.93
2022-11-25T17:36:15.499Z,55.93
2022-11-25T17:38:43.445Z,27.17
2022-11-25T17:41:13.296Z,38.47
2022-11-25T17:43:41.277Z,26.30
2022-11-25T17:46:11.554Z,24.40
2022-11-25T17:48:42.274Z,21.03
2022-11-25T17:51:10.415Z,33.93
2022-11-25T17:53:39.978Z,45.23
2022-11-25T17:56:27.012Z,25.70
2022-11-25T17:58:54.964Z,34.00
2022-11-25T18:01:22.974Z,17.63
2022-11-25T18:03:53.069Z,23.67
2022-11-25T18:06:21.067Z,36.73
2022-11-25T18:08:50.626Z,20.80
2022-11-25T18:11:19.905Z,14.33
2022-11-25T18:13:47.865Z,43.60
2022-11-25T18:16:16.096Z,21.53
2022-11-25T18:18:44.115Z,16.20
2022-11-25T18:21:12.703Z,19.07
2022-11-25T18:23:40.691Z,13.93
2022-11-25T18:26:11.030Z,12.70
2022-11-25T18:28:38.946Z,36.90
2022-11-25T18:31:07.337Z,17.83
2022-11-25T18:33:35.755Z,21.30
2022-11-25T18:36:03.806Z,20.63
2022-11-25T18:38:31.780Z,28.20
2022-11-25T18:40:59.778Z,13.23
2022-11-25T18:43:29.147Z,34.90
2022-11-25T18:45:57.329Z,18.50
2022-11-25T18:48:26.421Z,12.47
2022-11-25T18:50:56.092Z,8.33
2022-11-25T18:53:24.247Z,17.80
2022-11-25T18:55:52.266Z,18.80
2022-11-25T18:58:20.829Z,19.53
2022-11-25T19:00:50.845Z,14.80
2022-11-25T19:03:20.075Z,13.63
2022-11-25T19:05:48.190Z,13.17
2022-11-25T19:08:16.155Z,34.67
2022-11-25T19:10:44.685Z,16.13
2022-11-25T19:13:15.228Z,10.60
2022-11-25T19:15:44.047Z,10.23
2022-11-25T19:18:16.117Z,11.20
2022-11-25T19:20:44.082Z,32.60
2022-11-25T19:23:18.702Z,15.70
2022-11-25T19:25:46.649Z,12.10
2022-11-25T19:28:14.807Z,33.97
2022-11-25T19:30:42.908Z,19.80
2022-11-25T19:33:14.612Z,14.13
2022-11-25T19:35:42.634Z,17.80
2022-11-25T19:38:21.327Z,15.40
2022-11-25T19:40:49.444Z,13.27
2022-11-25T19:43:17.437Z,14.80
2022-11-25T19:45:45.477Z,16.40
2022-11-25T19:48:16.703Z,16.40
2022-11-25T19:50:45.134Z,14.60
2022-11-25T19:53:16.753Z,10.00
2022-11-25T19:55:45.199Z,20.97
2022-11-25T19:58:13.172Z,37.33
2022-11-25T20:00:41.276Z,27.40
2022-11-25T20:03:12.694Z,31.27
2022-11-25T20:05:42.068Z,17.40
2022-11-25T20:08:12.198Z,16.23
2022-11-25T20:10:40.132Z,32.07
2022-11-25T20:13:08.109Z,15.77
2022-11-25T20:15:36.278Z,11.43
2022-11-25T20:18:04.744Z,11.40
2022-11-25T20:20:33.600Z,12.30
2022-11-25T20:23:04.165Z,7.77
2022-11-25T20:25:32.160Z,12.47
2022-11-25T20:28:00.158Z,12.70
2022-11-25T20:30:29.385Z,18.70
2022-11-25T20:32:57.386Z,9.63
2022-11-25T20:35:25.378Z,26.33
2022-11-25T20:37:57.990Z,20.10
2022-11-25T20:40:32.979Z,8.03
2022-11-25T20:43:00.997Z,15.47
2022-11-25T20:45:28.962Z,13.83
2022-11-25T20:47:57.052Z,61.63
2022-11-25T20:50:25.016Z,70.60
2022-11-25T20:52:52.982Z,24.70
2022-11-25T20:55:22.262Z,18.53
2022-11-25T20:57:51.894Z,37.20
2022-11-25T21:00:21.048Z,13.40
2022-11-25T21:02:49.112Z,9.93
2022-11-25T21:05:17.965Z,15.97
2022-11-25T21:07:46.093Z,17.27
2022-11-25T21:10:23.069Z,13.30
2022-11-25T21:12:52.536Z,9.07
2022-11-25T21:15:21.720Z,8.03
2022-11-25T21:17:49.723Z,12.53
2022-11-25T21:20:18.173Z,6.20
2022-11-25T21:22:47.272Z,5.47
2022-11-25T21:25:16.990Z,8.27
2022-11-25T21:27:45.189Z,9.47
2022-11-25T21:30:21.351Z,7.07
2022-11-25T21:32:49.341Z,7.83
2022-11-25T21:35:17.347Z,8.07
2022-11-25T21:37:45.345Z,6.37
2022-11-25T21:40:32.376Z,7.40
2022-11-25T21:43:00.376Z,9.93
2022-11-25T21:45:29.727Z,8.73
2022-11-25T21:47:57.761Z,6.77
2022-11-25T21:50:29.287Z,7.03
2022-11-25T21:52:57.367Z,7.70
2022-11-25T21:55:25.360Z,19.97
2022-11-25T21:57:53.267Z,7.00
2022-11-25T22:00:23.894Z,7.17
2022-11-25T22:02:53.405Z,11.90
2022-11-25T22:05:22.255Z,7.30
2022-11-25T22:07:50.328Z,7.70
2022-11-25T22:10:18.675Z,6.93
2022-11-25T22:12:47.284Z,7.03
2022-11-25T22:15:16.960Z,9.93
2022-11-25T22:17:45.118Z,12.90
2022-11-25T22:20:24.901Z,8.10
2022-11-25T22:22:52.814Z,7.17
2022-11-25T22:25:20.774Z,7.87
2022-11-25T22:27:48.781Z,9.10
2022-11-25T22:30:17.696Z,8.70
2022-11-25T22:32:45.853Z,10.63
2022-11-25T22:35:18.306Z,12.20
2022-11-25T22:37:53.501Z,13.20
2022-11-25T22:40:22.875Z,9.40
2022-11-25T22:42:51.452Z,10.93
2022-11-25T22:45:22.322Z,9.53
2022-11-25T22:47:50.330Z,9.80
2022-11-25T22:50:21.811Z,13.30
2022-11-25T22:52:51.198Z,8.83
2022-11-25T22:55:20.926Z,10.53
2022-11-25T22:57:49.098Z,12.17
2022-11-25T23:00:21.759Z,11.40
2022-11-25T23:02:49.799Z,10.33
2022-11-25T23:05:20.056Z,6.20
2022-11-25T23:07:48.471Z,7.70
2022-11-25T23:10:19.867Z,8.73
2022-11-25T23:12:47.894Z,7.77
2022-11-25T23:15:16.270Z,7.43
2022-11-25T23:17:49.600Z,6.03
2022-11-25T23:20:21.983Z,7.30
2022-11-25T23:22:49.963Z,5.30
2022-11-25T23:25:21.007Z,8.37
2022-11-25T23:27:49.094Z,8.87
2022-11-25T23:30:17.622Z,6.33
2022-11-25T23:32:45.728Z,6.53
2022-11-25T23:35:17.514Z,7.13
2022-11-25T23:37:45.522Z,6.97
2022-11-25T23:40:20.915Z,7.60
2022-11-25T23:42:48.919Z,7.30
2022-11-25T23:45:18.281Z,9.60
2022-11-25T23:47:46.671Z,6.40
2022-11-25T23:50:22.548Z,8.97
2022-11-25T23:52:50.571Z,6.23
2022-11-25T23:55:23.340Z,6.00
2022-11-25T23:57:51.272Z,4.67
